sensor_id;sensor_type;location;lat;lon;timestamp;P1;durP1;ratioP1;P2;durP2;ratioP2
147;SDS011;142;50.652;12.216;2022-08-25T00:01:24;0.30;;;0.20;;
147;SDS011;142;50.652;12.216;2022-08-25T00:03:52;0.20;;;0.10;;
147;SDS011;142;50.652;12.216;2022-08-25T00:06:20;0.20;;;0.10;;
147;SDS011;142;50.652;12.216;2022-08-25T00:08:47;0.20;;;0.10;;
147;SDS011;142;50.652;12.216;2022-08-25T00:11:16;0.20;;;0.10;;
147;SDS011;142;50.652;12.216;2022-08-25T00:13:47;0.07;;;0.03;;
147;SDS011;142;50.652;12.216;2022-08-25T00:16:18;0.20;;;0.10;;
147;SDS011;142;50.652;12.216;2022-08-25T00:18:48;0.20;;;0.10;;
147;SDS011;142;50.652;12.216;2022-08-25T00:21:21;0.30;;;0.20;;
147;SDS011;142;50.652;12.216;2022-08-25T00:23:48;0.30;;;0.20;;
147;SDS011;142;50.652;12.216;2022-08-25T00:26:16;0.30;;;0.20;;
147;SDS011;142;50.652;12.216;2022-08-25T00:28:45;0.20;;;0.10;;
147;SDS011;142;50.652;12.216;2022-08-25T00:31:13;0.20;;;0.10;;
147;SDS011;142;50.652;12.216;2022-08-25T00:33:42;0.30;;;0.20;;
147;SDS011;142;50.652;12.216;2022-08-25T00:36:10;0.20;;;0.10;;
147;SDS011;142;50.652;12.216;2022-08-25T00:38:37;0.20;;;0.10;;
147;SDS011;142;50.652;12.216;2022-08-25T00:41:04;0.00;;;0.00;;
147;SDS011;142;50.652;12.216;2022-08-25T00:43:34;0.20;;;0.10;;
147;SDS011;142;50.652;12.216;2022-08-25T00:46:11;0.20;;;0.10;;
147;SDS011;142;50.652;12.216;2022-08-25T00:48:43;0.20;;;0.10;;
147;SDS011;142;50.652;12.216;2022-08-25T00:51:14;0.30;;;0.20;;
147;SDS011;142;50.652;12.216;2022-08-25T00:53:46;0.30;;;0.20;;
147;SDS011;142;50.652;12.216;2022-08-25T00:56:13;0.40;;;0.30;;
147;SDS011;142;50.652;12.216;2022-08-25T00:58:40;0.20;;;0.10;;
147;SDS011;142;50.652;12.216;2022-08-25T01:01:08;0.40;;;0.30;;
147;SDS011;142;50.652;12.216;2022-08-25T01:03:37;0.00;;;0.00;;
147;SDS011;142;50.652;12.216;2022-08-25T01:06:04;0.30;;;0.20;;
147;SDS011;142;50.652;12.216;2022-08-25T01:08:34;0.50;;;0.40;;
147;SDS011;142;50.652;12.216;2022-08-25T01:11:02;0.30;;;0.20;;
147;SDS011;142;50.652;12.216;2022-08-25T01:13:32;0.30;;;0.20;;
147;SDS011;142;50.652;12.216;2022-08-25T01:16:02;0.20;;;0.10;;
147;SDS011;142;50.652;12.216;2022-08-25T01:18:31;0.20;;;0.10;;
147;SDS011;142;50.652;12.216;2022-08-25T01:21:11;0.20;;;0.10;;
147;SDS011;142;50.652;12.216;2022-08-25T01:23:38;0.00;;;0.00;;
147;SDS011;142;50.652;12.216;2022-08-25T01:26:07;0.30;;;0.20;;
147;SDS011;142;50.652;12.216;2022-08-25T01:28:36;0.30;;;0.20;;
147;SDS011;142;50.652;12.216;2022-08-25T01:31:23;0.30;;;0.20;;
147;SDS011;142;50.652;12.216;2022-08-25T01:33:51;0.00;;;0.00;;
147;SDS011;142;50.652;12.216;2022-08-25T01:36:19;0.20;;;0.10;;
147;SDS011;142;50.652;12.216;2022-08-25T01:38:48;0.20;;;0.10;;
147;SDS011;142;50.652;12.216;2022-08-25T01:41:16;0.27;;;0.17;;
147;SDS011;142;50.652;12.216;2022-08-25T01:43:47;0.30;;;0.20;;
147;SDS011;142;50.652;12.216;2022-08-25T01:46:14;0.23;;;0.13;;
147;SDS011;142;50.652;12.216;2022-08-25T01:48:41;0.23;;;0.13;;
147;SDS011;142;50.652;12.216;2022-08-25T01:51:08;0.30;;;0.20;;
147;SDS011;142;50.652;12.216;2022-08-25T01:53:37;0.30;;;0.20;;
147;SDS011;142;50.652;12.216;2022-08-25T01:56:08;0.30;;;0.20;;
147;SDS011;142;50.652;12.216;2022-08-25T01:58:37;0.20;;;0.10;;
147;SDS011;142;50.652;12.216;2022-08-25T02:01:07;0.30;;;0.20;;
147;SDS011;142;50.652;12.216;2022-08-25T02:03:36;0.57;;;0.47;;
147;SDS011;142;50.652;12.216;2022-08-25T02:06:05;0.20;;;0.10;;
147;SDS011;142;50.652;12.216;2022-08-25T02:08:33;0.20;;;0.10;;
147;SDS011;142;50.652;12.216;2022-08-25T02:11:02;0.30;;;0.20;;
147;SDS011;142;50.652;12.216;2022-08-25T02:13:29;0.20;;;0.10;;
147;SDS011;142;50.652;12.216;2022-08-25T02:15:57;0.40;;;0.30;;
147;SDS011;142;50.652;12.216;2022-08-25T02:18:26;0.20;;;0.10;;
147;SDS011;142;50.652;12.216;2022-08-25T02:20:53;0.20;;;0.10;;
147;SDS011;142;50.652;12.216;2022-08-25T02:23:20;0.20;;;0.10;;
147;SDS011;142;50.652;12.216;2022-08-25T02:25:47;0.27;;;0.17;;
147;SDS011;142;50.652;12.216;2022-08-25T02:28:15;0.20;;;0.10;;
147;SDS011;142;50.652;12.216;2022-08-25T02:30:43;0.30;;;0.20;;
147;SDS011;142;50.652;12.216;2022-08-25T02:33:12;0.23;;;0.13;;
147;SDS011;142;50.652;12.216;2022-08-25T02:35:39;0.20;;;0.10;;
147;SDS011;142;50.652;12.216;2022-08-25T02:38:06;0.20;;;0.10;;
147;SDS011;142;50.652;12.216;2022-08-25T02:40:33;0.20;;;0.10;;
147;SDS011;142;50.652;12.216;2022-08-25T02:43:00;0.30;;;0.20;;
147;SDS011;142;50.652;12.216;2022-08-25T02:45:29;0.20;;;0.10;;
147;SDS011;142;50.652;12.216;2022-08-25T02:47:56;0.20;;;0.10;;
147;SDS011;142;50.652;12.216;2022-08-25T02:50:23;0.40;;;0.30;;
147;SDS011;142;50.652;12.216;2022-08-25T02:52:50;0.23;;;0.13;;
147;SDS011;142;50.652;12.216;2022-08-25T02:55:18;0.30;;;0.20;;
147;SDS011;142;50.652;12.216;2022-08-25T02:57:45;0.20;;;0.10;;
147;SDS011;142;50.652;12.216;2022-08-25T03:00:14;0.00;;;0.00;;
147;SDS011;142;50.652;12.216;2022-08-25T03:02:43;0.20;;;0.10;;
147;SDS011;142;50.652;12.216;2022-08-25T03:05:11;0.20;;;0.10;;
147;SDS011;142;50.652;12.216;2022-08-25T03:07:41;0.23;;;0.13;;
147;SDS011;142;50.652;12.216;2022-08-25T03:10:09;0.20;;;0.10;;
147;SDS011;142;50.652;12.216;2022-08-25T03:12:38;0.30;;;0.20;;
147;SDS011;142;50.652;12.216;2022-08-25T03:15:07;0.20;;;0.10;;
147;SDS011;142;50.652;12.216;2022-08-25T03:17:34;0.30;;;0.20;;
147;SDS011;142;50.652;12.216;2022-08-25T03:20:04;0.30;;;0.20;;
147;SDS011;142;50.652;12.216;2022-08-25T03:22:32;0.23;;;0.13;;
147;SDS011;142;50.652;12.216;2022-08-25T03:24:59;0.20;;;0.10;;
147;SDS011;142;50.652;12.216;2022-08-25T03:27:40;0.20;;;0.10;;
147;SDS011;142;50.652;12.216;2022-08-25T03:30:08;0.30;;;0.20;;
147;SDS011;142;50.652;12.216;2022-08-25T03:32:36;0.40;;;0.30;;
147;SDS011;142;50.652;12.216;2022-08-25T03:35:05;0.20;;;0.10;;
147;SDS011;142;50.652;12.216;2022-08-25T03:37:33;0.20;;;0.10;;
147;SDS011;142;50.652;12.216;2022-08-25T03:40:00;0.20;;;0.10;;
147;SDS011;142;50.652;12.216;2022-08-25T03:42:28;0.37;;;0.27;;
147;SDS011;142;50.652;12.216;2022-08-25T03:44:55;0.30;;;0.20;;
147;SDS011;142;50.652;12.216;2022-08-25T03:47:22;0.27;;;0.17;;
147;SDS011;142;50.652;12.216;2022-08-25T03:49:50;0.23;;;0.13;;
147;SDS011;142;50.652;12.216;2022-08-25T03:52:20;0.20;;;0.10;;
147;SDS011;142;50.652;12.216;2022-08-25T03:54:48;0.30;;;0.20;;
147;SDS011;142;50.652;12.216;2022-08-25T03:57:15;0.27;;;0.17;;
147;SDS011;142;50.652;12.216;2022-08-25T03:59:42;0.20;;;0.10;;
147;SDS011;142;50.652;12.216;2022-08-25T04:02:09;0.20;;;0.10;;
147;SDS011;142;50.652;12.216;2022-08-25T04:04:36;0.27;;;0.17;;
147;SDS011;142;50.652;12.216;2022-08-25T04:07:03;0.20;;;0.10;;
147;SDS011;142;50.652;12.216;2022-08-25T04:09:32;0.20;;;0.10;;
147;SDS011;142;50.652;12.216;2022-08-25T04:11:59;0.20;;;0.10;;
147;SDS011;142;50.652;12.216;2022-08-25T04:14:27;0.27;;;0.17;;
147;SDS011;142;50.652;12.216;2022-08-25T04:16:54;0.23;;;0.13;;
147;SDS011;142;50.652;12.216;2022-08-25T04:19:21;0.27;;;0.17;;
147;SDS011;142;50.652;12.216;2022-08-25T04:21:48;0.20;;;0.10;;
147;SDS011;142;50.652;12.216;2022-08-25T04:24:15;0.20;;;0.10;;
147;SDS011;142;50.652;12.216;2022-08-25T04:26:45;0.30;;;0.20;;
147;SDS011;142;50.652;12.216;2022-08-25T04:29:15;0.30;;;0.20;;
147;SDS011;142;50.652;12.216;2022-08-25T04:31:44;0.30;;;0.20;;
147;SDS011;142;50.652;12.216;2022-08-25T04:34:14;0.20;;;0.10;;
147;SDS011;142;50.652;12.216;2022-08-25T04:36:41;0.20;;;0.10;;
147;SDS011;142;50.652;12.216;2022-08-25T04:39:08;0.40;;;0.30;;
147;SDS011;142;50.652;12.216;2022-08-25T04:41:36;0.20;;;0.10;;
147;SDS011;142;50.652;12.216;2022-08-25T04:44:07;0.30;;;0.20;;
147;SDS011;142;50.652;12.216;2022-08-25T04:46:34;0.47;;;0.37;;
147;SDS011;142;50.652;12.216;2022-08-25T04:49:02;0.30;;;0.20;;
147;SDS011;142;50.652;12.216;2022-08-25T04:51:30;0.20;;;0.10;;
147;SDS011;142;50.652;12.216;2022-08-25T04:54:00;0.30;;;0.20;;
147;SDS011;142;50.652;12.216;2022-08-25T04:56:29;0.20;;;0.10;;
147;SDS011;142;50.652;12.216;2022-08-25T04:59:00;0.30;;;0.20;;
147;SDS011;142;50.652;12.216;2022-08-25T05:01:29;0.27;;;0.17;;
147;SDS011;142;50.652;12.216;2022-08-25T05:03:58;0.30;;;0.20;;
147;SDS011;142;50.652;12.216;2022-08-25T05:06:26;0.30;;;0.20;;
147;SDS011;142;50.652;12.216;2022-08-25T05:08:55;0.00;;;0.00;;
147;SDS011;142;50.652;12.216;2022-08-25T05:11:23;0.20;;;0.10;;
147;SDS011;142;50.652;12.216;2022-08-25T05:13:51;0.20;;;0.10;;
147;SDS011;142;50.652;12.216;2022-08-25T05:16:21;0.23;;;0.13;;
147;SDS011;142;50.652;12.216;2022-08-25T05:18:50;0.20;;;0.10;;
147;SDS011;142;50.652;12.216;2022-08-25T05:21:19;0.20;;;0.10;;
147;SDS011;142;50.652;12.216;2022-08-25T05:23:49;0.23;;;0.13;;
147;SDS011;142;50.652;12.216;2022-08-25T05:26:17;0.20;;;0.10;;
147;SDS011;142;50.652;12.216;2022-08-25T05:28:46;0.20;;;0.10;;
147;SDS011;142;50.652;12.216;2022-08-25T05:31:15;0.30;;;0.20;;
147;SDS011;142;50.652;12.216;2022-08-25T05:33:42;0.40;;;0.30;;
147;SDS011;142;50.652;12.216;2022-08-25T05:36:12;0.30;;;0.20;;
147;SDS011;142;50.652;12.216;2022-08-25T05:38:40;0.20;;;0.10;;
147;SDS011;142;50.652;12.216;2022-08-25T05:41:08;0.20;;;0.10;;
147;SDS011;142;50.652;12.216;2022-08-25T05:43:36;0.00;;;0.00;;
147;SDS011;142;50.652;12.216;2022-08-25T05:46:05;0.20;;;0.10;;
147;SDS011;142;50.652;12.216;2022-08-25T05:48:33;0.20;;;0.10;;
147;SDS011;142;50.652;12.216;2022-08-25T05:51:03;0.20;;;0.10;;
147;SDS011;142;50.652;12.216;2022-08-25T05:53:33;0.20;;;0.10;;
147;SDS011;142;50.652;12.216;2022-08-25T05:56:02;0.20;;;0.10;;
147;SDS011;142;50.652;12.216;2022-08-25T05:58:29;0.30;;;0.20;;
147;SDS011;142;50.652;12.216;2022-08-25T06:00:57;0.20;;;0.10;;
147;SDS011;142;50.652;12.216;2022-08-25T06:03:46;0.00;;;0.00;;
147;SDS011;142;50.652;12.216;2022-08-25T06:06:12;0.20;;;0.10;;
147;SDS011;142;50.652;12.216;2022-08-25T06:08:41;0.00;;;0.00;;
147;SDS011;142;50.652;12.216;2022-08-25T06:11:09;0.20;;;0.10;;
147;SDS011;142;50.652;12.216;2022-08-25T06:13:36;0.20;;;0.10;;
147;SDS011;142;50.652;12.216;2022-08-25T06:16:04;0.20;;;0.10;;
147;SDS011;142;50.652;12.216;2022-08-25T06:18:32;0.20;;;0.10;;
147;SDS011;142;50.652;12.216;2022-08-25T06:21:05;0.20;;;0.10;;
147;SDS011;142;50.652;12.216;2022-08-25T06:23:33;0.00;;;0.00;;
147;SDS011;142;50.652;12.216;2022-08-25T06:26:01;0.30;;;0.20;;
147;SDS011;142;50.652;12.216;2022-08-25T06:28:28;0.00;;;0.00;;
147;SDS011;142;50.652;12.216;2022-08-25T06:30:56;0.20;;;0.10;;
147;SDS011;142;50.652;12.216;2022-08-25T06:33:24;0.20;;;0.10;;
147;SDS011;142;50.652;12.216;2022-08-25T06:35:52;0.30;;;0.20;;
147;SDS011;142;50.652;12.216;2022-08-25T06:38:20;0.07;;;0.03;;
147;SDS011;142;50.652;12.216;2022-08-25T06:40:48;0.23;;;0.13;;
147;SDS011;142;50.652;12.216;2022-08-25T06:43:17;0.13;;;0.07;;
147;SDS011;142;50.652;12.216;2022-08-25T06:45:44;0.20;;;0.10;;
147;SDS011;142;50.652;12.216;2022-08-25T06:48:12;0.20;;;0.10;;
147;SDS011;142;50.652;12.216;2022-08-25T06:50:40;0.00;;;0.00;;
147;SDS011;142;50.652;12.216;2022-08-25T06:53:07;0.20;;;0.10;;
147;SDS011;142;50.652;12.216;2022-08-25T06:55:34;0.20;;;0.10;;
147;SDS011;142;50.652;12.216;2022-08-25T06:58:02;0.20;;;0.10;;
147;SDS011;142;50.652;12.216;2022-08-25T07:00:31;0.20;;;0.10;;
147;SDS011;142;50.652;12.216;2022-08-25T07:02:58;0.20;;;0.10;;
147;SDS011;142;50.652;12.216;2022-08-25T07:05:26;0.30;;;0.20;;
147;SDS011;142;50.652;12.216;2022-08-25T07:07:54;0.00;;;0.00;;
147;SDS011;142;50.652;12.216;2022-08-25T07:10:21;0.00;;;0.00;;
147;SDS011;142;50.652;12.216;2022-08-25T07:12:48;0.20;;;0.10;;
147;SDS011;142;50.652;12.216;2022-08-25T07:15:16;0.20;;;0.10;;
147;SDS011;142;50.652;12.216;2022-08-25T07:17:48;0.00;;;0.00;;
147;SDS011;142;50.652;12.216;2022-08-25T07:20:16;0.20;;;0.10;;
147;SDS011;142;50.652;12.216;2022-08-25T07:22:43;0.20;;;0.10;;
147;SDS011;142;50.652;12.216;2022-08-25T07:25:10;0.00;;;0.00;;
147;SDS011;142;50.652;12.216;2022-08-25T07:27:38;0.20;;;0.10;;
147;SDS011;142;50.652;12.216;2022-08-25T07:30:05;0.07;;;0.03;;
147;SDS011;142;50.652;12.216;2022-08-25T07:32:33;0.20;;;0.10;;
147;SDS011;142;50.652;12.216;2022-08-25T07:35:02;0.00;;;0.00;;
147;SDS011;142;50.652;12.216;2022-08-25T07:37:41;0.00;;;0.00;;
147;SDS011;142;50.652;12.216;2022-08-25T07:40:10;0.00;;;0.00;;
147;SDS011;142;50.652;12.216;2022-08-25T07:42:39;0.07;;;0.03;;
147;SDS011;142;50.652;12.216;2022-08-25T07:45:08;0.00;;;0.00;;
147;SDS011;142;50.652;12.216;2022-08-25T07:47:36;0.00;;;0.00;;
147;SDS011;142;50.652;12.216;2022-08-25T07:50:06;0.07;;;0.03;;
147;SDS011;142;50.652;12.216;2022-08-25T07:52:35;0.00;;;0.00;;
147;SDS011;142;50.652;12.216;2022-08-25T07:55:03;0.00;;;0.00;;
147;SDS011;142;50.652;12.216;2022-08-25T07:57:30;0.20;;;0.10;;
147;SDS011;142;50.652;12.216;2022-08-25T07:59:58;0.00;;;0.00;;
147;SDS011;142;50.652;12.216;2022-08-25T08:02:25;0.00;;;0.00;;
147;SDS011;142;50.652;12.216;2022-08-25T08:04:52;0.20;;;0.10;;
147;SDS011;142;50.652;12.216;2022-08-25T08:07:21;0.20;;;0.10;;
147;SDS011;142;50.652;12.216;2022-08-25T08:09:54;0.00;;;0.00;;
147;SDS011;142;50.652;12.216;2022-08-25T08:12:21;0.00;;;0.00;;
147;SDS011;142;50.652;12.216;2022-08-25T08:14:48;0.00;;;0.00;;
147;SDS011;142;50.652;12.216;2022-08-25T08:17:16;0.00;;;0.00;;
147;SDS011;142;50.652;12.216;2022-08-25T08:19:43;0.00;;;0.00;;
147;SDS011;142;50.652;12.216;2022-08-25T08:22:11;0.00;;;0.00;;
147;SDS011;142;50.652;12.216;2022-08-25T08:24:41;0.00;;;0.00;;
147;SDS011;142;50.652;12.216;2022-08-25T08:27:09;0.00;;;0.00;;
147;SDS011;142;50.652;12.216;2022-08-25T08:29:38;0.00;;;0.00;;
147;SDS011;142;50.652;12.216;2022-08-25T08:32:08;0.00;;;0.00;;
147;SDS011;142;50.652;12.216;2022-08-25T08:34:37;0.00;;;0.00;;
147;SDS011;142;50.652;12.216;2022-08-25T08:37:06;0.20;;;0.10;;
147;SDS011;142;50.652;12.216;2022-08-25T08:39:35;0.00;;;0.00;;
147;SDS011;142;50.652;12.216;2022-08-25T08:42:09;0.00;;;0.00;;
147;SDS011;142;50.652;12.216;2022-08-25T08:44:51;0.00;;;0.00;;
147;SDS011;142;50.652;12.216;2022-08-25T08:47:32;0.00;;;0.00;;
147;SDS011;142;50.652;12.216;2022-08-25T08:50:23;0.00;;;0.00;;
147;SDS011;142;50.652;12.216;2022-08-25T08:52:56;0.00;;;0.00;;
147;SDS011;142;50.652;12.216;2022-08-25T08:55:29;0.20;;;0.10;;
147;SDS011;142;50.652;12.216;2022-08-25T08:58:00;0.00;;;0.00;;
147;SDS011;142;50.652;12.216;2022-08-25T09:00:31;0.00;;;0.00;;
147;SDS011;142;50.652;12.216;2022-08-25T09:03:09;0.00;;;0.00;;
147;SDS011;142;50.652;12.216;2022-08-25T09:05:43;0.00;;;0.00;;
147;SDS011;142;50.652;12.216;2022-08-25T09:08:13;0.00;;;0.00;;
147;SDS011;142;50.652;12.216;2022-08-25T09:10:46;0.00;;;0.00;;
147;SDS011;142;50.652;12.216;2022-08-25T09:13:23;0.00;;;0.00;;
147;SDS011;142;50.652;12.216;2022-08-25T09:16:00;0.00;;;0.00;;
147;SDS011;142;50.652;12.216;2022-08-25T09:18:50;0.00;;;0.00;;
147;SDS011;142;50.652;12.216;2022-08-25T09:21:26;0.00;;;0.00;;
147;SDS011;142;50.652;12.216;2022-08-25T09:24:04;0.00;;;0.00;;
147;SDS011;142;50.652;12.216;2022-08-25T09:26:44;0.00;;;0.00;;
147;SDS011;142;50.652;12.216;2022-08-25T09:29:20;0.00;;;0.00;;
147;SDS011;142;50.652;12.216;2022-08-25T09:31:50;0.00;;;0.00;;
147;SDS011;142;50.652;12.216;2022-08-25T09:34:20;0.00;;;0.00;;
147;SDS011;142;50.652;12.216;2022-08-25T09:36:49;0.00;;;0.00;;
147;SDS011;142;50.652;12.216;2022-08-25T09:39:20;0.00;;;0.00;;
147;SDS011;142;50.652;12.216;2022-08-25T09:41:49;0.00;;;0.00;;
147;SDS011;142;50.652;12.216;2022-08-25T09:44:22;0.00;;;0.00;;
147;SDS011;142;50.652;12.216;2022-08-25T09:47:00;0.00;;;0.00;;
147;SDS011;142;50.652;12.216;2022-08-25T09:49:34;0.00;;;0.00;;
147;SDS011;142;50.652;12.216;2022-08-25T09:52:17;0.00;;;0.00;;
147;SDS011;142;50.652;12.216;2022-08-25T09:54:50;0.00;;;0.00;;
147;SDS011;142;50.652;12.216;2022-08-25T09:57:32;0.00;;;0.00;;
147;SDS011;142;50.652;12.216;2022-08-25T10:00:16;0.00;;;0.00;;
147;SDS011;142;50.652;12.216;2022-08-25T10:03:00;0.00;;;0.00;;
147;SDS011;142;50.652;12.216;2022-08-25T10:05:30;0.00;;;0.00;;
147;SDS011;142;50.652;12.216;2022-08-25T10:08:00;0.00;;;0.00;;
147;SDS011;142;50.652;12.216;2022-08-25T10:10:29;0.00;;;0.00;;
147;SDS011;142;50.652;12.216;2022-08-25T10:12:58;0.00;;;0.00;;
147;SDS011;142;50.652;12.216;2022-08-25T10:15:30;0.00;;;0.00;;
147;SDS011;142;50.652;12.216;2022-08-25T10:21:00;0.00;;;0.00;;
147;SDS011;142;50.652;12.216;2022-08-25T10:23:29;0.00;;;0.00;;
147;SDS011;142;50.652;12.216;2022-08-25T10:26:01;0.00;;;0.00;;
147;SDS011;142;50.652;12.216;2022-08-25T10:28:32;0.00;;;0.00;;
147;SDS011;142;50.652;12.216;2022-08-25T10:31:07;0.00;;;0.00;;
147;SDS011;142;50.652;12.216;2022-08-25T10:33:42;0.00;;;0.00;;
147;SDS011;142;50.652;12.216;2022-08-25T10:36:25;0.00;;;0.00;;
147;SDS011;142;50.652;12.216;2022-08-25T10:39:03;0.00;;;0.00;;
147;SDS011;142;50.652;12.216;2022-08-25T10:41:38;0.00;;;0.00;;
147;SDS011;142;50.652;12.216;2022-08-25T10:44:17;0.00;;;0.00;;
147;SDS011;142;50.652;12.216;2022-08-25T10:47:15;0.00;;;0.00;;
147;SDS011;142;50.652;12.216;2022-08-25T10:49:59;0.00;;;0.00;;
147;SDS011;142;50.652;12.216;2022-08-25T10:52:36;0.00;;;0.00;;
147;SDS011;142;50.652;12.216;2022-08-25T10:55:12;0.00;;;0.00;;
147;SDS011;142;50.652;12.216;2022-08-25T10:57:45;0.00;;;0.00;;
147;SDS011;142;50.652;12.216;2022-08-25T11:00:22;0.00;;;0.00;;
147;SDS011;142;50.652;12.216;2022-08-25T11:05:51;0.00;;;0.00;;
147;SDS011;142;50.652;12.216;2022-08-25T11:08:29;0.00;;;0.00;;
147;SDS011;142;50.652;12.216;2022-08-25T11:11:01;0.20;;;0.10;;
147;SDS011;142;50.652;12.216;2022-08-25T11:13:37;0.00;;;0.00;;
147;SDS011;142;50.652;12.216;2022-08-25T11:16:09;0.00;;;0.00;;
147;SDS011;142;50.652;12.216;2022-08-25T11:18:43;0.00;;;0.00;;
147;SDS011;142;50.652;12.216;2022-08-25T11:21:16;0.00;;;0.00;;
147;SDS011;142;50.652;12.216;2022-08-25T11:23:49;0.00;;;0.00;;
147;SDS011;142;50.652;12.216;2022-08-25T11:26:22;0.00;;;0.00;;
147;SDS011;142;50.652;12.216;2022-08-25T11:28:59;0.00;;;0.00;;
147;SDS011;142;50.652;12.216;2022-08-25T11:31:33;0.00;;;0.00;;
147;SDS011;142;50.652;12.216;2022-08-25T11:34:07;0.00;;;0.00;;
147;SDS011;142;50.652;12.216;2022-08-25T11:36:38;0.00;;;0.00;;
147;SDS011;142;50.652;12.216;2022-08-25T11:39:14;0.00;;;0.00;;
147;SDS011;142;50.652;12.216;2022-08-25T11:41:46;0.00;;;0.00;;
147;SDS011;142;50.652;12.216;2022-08-25T11:44:35;0.00;;;0.00;;
147;SDS011;142;50.652;12.216;2022-08-25T11:50:24;0.00;;;0.00;;
147;SDS011;142;50.652;12.216;2022-08-25T11:52:55;0.00;;;0.00;;
147;SDS011;142;50.652;12.216;2022-08-25T11:55:28;0.00;;;0.00;;
147;SDS011;142;50.652;12.216;2022-08-25T11:58:15;0.00;;;0.00;;
147;SDS011;142;50.652;12.216;2022-08-25T12:00:54;0.00;;;0.00;;
147;SDS011;142;50.652;12.216;2022-08-25T12:06:24;0.00;;;0.00;;
147;SDS011;142;50.652;12.216;2022-08-25T12:11:50;0.00;;;0.00;;
147;SDS011;142;50.652;12.216;2022-08-25T12:14:36;0.00;;;0.00;;
147;SDS011;142;50.652;12.216;2022-08-25T12:17:16;0.00;;;0.00;;
147;SDS011;142;50.652;12.216;2022-08-25T12:19:51;0.00;;;0.00;;
147;SDS011;142;50.652;12.216;2022-08-25T12:28:16;0.00;;;0.00;;
147;SDS011;142;50.652;12.216;2022-08-25T12:31:00;0.00;;;0.00;;
147;SDS011;142;50.652;12.216;2022-08-25T12:33:35;0.00;;;0.00;;
147;SDS011;142;50.652;12.216;2022-08-25T12:36:09;0.00;;;0.00;;
147;SDS011;142;50.652;12.216;2022-08-25T12:38:50;0.00;;;0.00;;
147;SDS011;142;50.652;12.216;2022-08-25T12:41:20;0.00;;;0.00;;
147;SDS011;142;50.652;12.216;2022-08-25T12:43:49;0.00;;;0.00;;
147;SDS011;142;50.652;12.216;2022-08-25T12:46:31;0.00;;;0.00;;
147;SDS011;142;50.652;12.216;2022-08-25T12:49:00;0.00;;;0.00;;
147;SDS011;142;50.652;12.216;2022-08-25T12:51:41;0.00;;;0.00;;
147;SDS011;142;50.652;12.216;2022-08-25T12:54:21;0.00;;;0.00;;
147;SDS011;142;50.652;12.216;2022-08-25T12:56:56;0.00;;;0.00;;
147;SDS011;142;50.652;12.216;2022-08-25T12:59:31;0.00;;;0.00;;
147;SDS011;142;50.652;12.216;2022-08-25T13:05:09;0.00;;;0.00;;
147;SDS011;142;50.652;12.216;2022-08-25T13:08:07;0.00;;;0.00;;
147;SDS011;142;50.652;12.216;2022-08-25T13:10:54;0.00;;;0.00;;
147;SDS011;142;50.652;12.216;2022-08-25T13:13:30;0.00;;;0.00;;
147;SDS011;142;50.652;12.216;2022-08-25T13:16:14;0.00;;;0.00;;
147;SDS011;142;50.652;12.216;2022-08-25T13:18:44;0.00;;;0.00;;
147;SDS011;142;50.652;12.216;2022-08-25T13:21:12;0.00;;;0.00;;
147;SDS011;142;50.652;12.216;2022-08-25T13:23:44;0.00;;;0.00;;
147;SDS011;142;50.652;12.216;2022-08-25T13:26:13;0.00;;;0.00;;
147;SDS011;142;50.652;12.216;2022-08-25T13:28:51;0.00;;;0.00;;
147;SDS011;142;50.652;12.216;2022-08-25T13:31:21;0.00;;;0.00;;
147;SDS011;142;50.652;12.216;2022-08-25T13:33:52;0.00;;;0.00;;
147;SDS011;142;50.652;12.216;2022-08-25T13:36:22;0.00;;;0.00;;
147;SDS011;142;50.652;12.216;2022-08-25T13:39:10;0.00;;;0.00;;
147;SDS011;142;50.652;12.216;2022-08-25T13:41:42;0.00;;;0.00;;
147;SDS011;142;50.652;12.216;2022-08-25T13:44:13;0.00;;;0.00;;
147;SDS011;142;50.652;12.216;2022-08-25T13:46:41;0.00;;;0.00;;
147;SDS011;142;50.652;12.216;2022-08-25T13:49:09;0.00;;;0.00;;
147;SDS011;142;50.652;12.216;2022-08-25T13:51:37;0.00;;;0.00;;
147;SDS011;142;50.652;12.216;2022-08-25T13:54:21;0.00;;;0.00;;
147;SDS011;142;50.652;12.216;2022-08-25T13:56:52;0.00;;;0.00;;
147;SDS011;142;50.652;12.216;2022-08-25T13:59:32;0.00;;;0.00;;
147;SDS011;142;50.652;12.216;2022-08-25T14:02:02;0.00;;;0.00;;
147;SDS011;142;50.652;12.216;2022-08-25T14:04:32;0.00;;;0.00;;
147;SDS011;142;50.652;12.216;2022-08-25T14:07:14;0.00;;;0.00;;
147;SDS011;142;50.652;12.216;2022-08-25T14:09:52;0.00;;;0.00;;
147;SDS011;142;50.652;12.216;2022-08-25T14:12:38;0.00;;;0.00;;
147;SDS011;142;50.652;12.216;2022-08-25T14:15:34;0.00;;;0.00;;
147;SDS011;142;50.652;12.216;2022-08-25T14:18:03;0.00;;;0.00;;
147;SDS011;142;50.652;12.216;2022-08-25T14:20:33;0.00;;;0.00;;
147;SDS011;142;50.652;12.216;2022-08-25T14:23:05;0.00;;;0.00;;
147;SDS011;142;50.652;12.216;2022-08-25T14:25:36;0.00;;;0.00;;
147;SDS011;142;50.652;12.216;2022-08-25T14:28:05;0.00;;;0.00;;
147;SDS011;142;50.652;12.216;2022-08-25T14:30:41;0.00;;;0.00;;
147;SDS011;142;50.652;12.216;2022-08-25T14:33:11;0.00;;;0.00;;
147;SDS011;142;50.652;12.216;2022-08-25T14:35:40;0.00;;;0.00;;
147;SDS011;142;50.652;12.216;2022-08-25T14:38:10;0.00;;;0.00;;
147;SDS011;142;50.652;12.216;2022-08-25T14:40:38;0.00;;;0.00;;
147;SDS011;142;50.652;12.216;2022-08-25T14:43:05;0.00;;;0.00;;
147;SDS011;142;50.652;12.216;2022-08-25T14:45:34;0.00;;;0.00;;
147;SDS011;142;50.652;12.216;2022-08-25T14:48:05;0.00;;;0.00;;
147;SDS011;142;50.652;12.216;2022-08-25T14:50:34;0.00;;;0.00;;
147;SDS011;142;50.652;12.216;2022-08-25T14:53:03;0.00;;;0.00;;
147;SDS011;142;50.652;12.216;2022-08-25T14:55:30;0.00;;;0.00;;
147;SDS011;142;50.652;12.216;2022-08-25T14:57:57;0.00;;;0.00;;
147;SDS011;142;50.652;12.216;2022-08-25T15:00:25;0.00;;;0.00;;
147;SDS011;142;50.652;12.216;2022-08-25T15:02:52;0.00;;;0.00;;
147;SDS011;142;50.652;12.216;2022-08-25T15:05:21;0.00;;;0.00;;
147;SDS011;142;50.652;12.216;2022-08-25T15:07:51;0.00;;;0.00;;
147;SDS011;142;50.652;12.216;2022-08-25T15:10:36;0.00;;;0.00;;
147;SDS011;142;50.652;12.216;2022-08-25T15:13:04;0.00;;;0.00;;
147;SDS011;142;50.652;12.216;2022-08-25T15:15:33;0.00;;;0.00;;
147;SDS011;142;50.652;12.216;2022-08-25T15:18:03;0.00;;;0.00;;
147;SDS011;142;50.652;12.216;2022-08-25T15:20:32;0.00;;;0.00;;
147;SDS011;142;50.652;12.216;2022-08-25T15:22:59;0.00;;;0.00;;
147;SDS011;142;50.652;12.216;2022-08-25T15:25:26;0.00;;;0.00;;
147;SDS011;142;50.652;12.216;2022-08-25T15:27:54;0.00;;;0.00;;
147;SDS011;142;50.652;12.216;2022-08-25T15:30:21;0.00;;;0.00;;
147;SDS011;142;50.652;12.216;2022-08-25T15:32:48;0.00;;;0.00;;
147;SDS011;142;50.652;12.216;2022-08-25T15:35:16;0.00;;;0.00;;
147;SDS011;142;50.652;12.216;2022-08-25T15:37:44;0.00;;;0.00;;
147;SDS011;142;50.652;12.216;2022-08-25T15:40:13;0.00;;;0.00;;
147;SDS011;142;50.652;12.216;2022-08-25T15:42:40;0.00;;;0.00;;
147;SDS011;142;50.652;12.216;2022-08-25T15:45:08;0.00;;;0.00;;
147;SDS011;142;50.652;12.216;2022-08-25T15:47:36;0.00;;;0.00;;
147;SDS011;142;50.652;12.216;2022-08-25T15:50:04;0.00;;;0.00;;
147;SDS011;142;50.652;12.216;2022-08-25T15:52:35;0.00;;;0.00;;
147;SDS011;142;50.652;12.216;2022-08-25T15:55:04;0.00;;;0.00;;
147;SDS011;142;50.652;12.216;2022-08-25T15:57:32;0.00;;;0.00;;
147;SDS011;142;50.652;12.216;2022-08-25T15:59:59;0.00;;;0.00;;
147;SDS011;142;50.652;12.216;2022-08-25T16:02:27;0.00;;;0.00;;
147;SDS011;142;50.652;12.216;2022-08-25T16:04:56;0.00;;;0.00;;
147;SDS011;142;50.652;12.216;2022-08-25T16:07:23;0.00;;;0.00;;
147;SDS011;142;50.652;12.216;2022-08-25T16:09:51;0.00;;;0.00;;
147;SDS011;142;50.652;12.216;2022-08-25T16:12:22;0.00;;;0.00;;
147;SDS011;142;50.652;12.216;2022-08-25T16:14:50;0.00;;;0.00;;
147;SDS011;142;50.652;12.216;2022-08-25T16:17:18;0.00;;;0.00;;